sensor_id;sensor_type;location;lat;lon;timestamp;pressure;altitude;pressure_sealevel;temperature;humidity
10366;BME280;5229;41.820;23.490;2022-09-27T00:02:21;89394.75;;;17.18;71.78
10366;BME280;5229;41.820;23.490;2022-09-27T00:04:48;89395.88;;;17.17;71.49
10366;BME280;5229;41.820;23.490;2022-09-27T00:07:15;89375.19;;;17.12;71.24
10366;BME280;5229;41.820;23.490;2022-09-27T00:09:42;89367.69;;;17.11;71.62
10366;BME280;5229;41.820;23.490;2022-09-27T00:12:09;89374.84;;;17.14;71.72
10366;BME280;5229;41.820;23.490;2022-09-27T00:14:35;89384.63;;;17.17;71.09
10366;BME280;5229;41.820;23.490;2022-09-27T00:17:02;89373.03;;;17.18;71.24
10366;BME280;5229;41.820;23.490;2022-09-27T00:19:31;89369.28;;;17.19;71.39
10366;BME280;5229;41.820;23.490;2022-09-27T00:21:58;89361.81;;;17.21;71.37
10366;BME280;5229;41.820;23.490;2022-09-27T00:24:26;89362.25;;;17.23;71.41
10366;BME280;5229;41.820;23.490;2022-09-27T00:26:53;89370.84;;;17.23;71.61
10366;BME280;5229;41.820;23.490;2022-09-27T00:29:19;89365.59;;;17.23;71.51
10366;BME280;5229;41.820;23.490;2022-09-27T00:31:47;89361.88;;;17.24;71.16
10366;BME280;5229;41.820;23.490;2022-09-27T00:34:18;89364.09;;;17.22;71.46
10366;BME280;5229;41.820;23.490;2022-09-27T00:36:47;89347.97;;;17.20;71.41
10366;BME280;5229;41.820;23.490;2022-09-27T00:39:14;89350.59;;;17.20;71.38
10366;BME280;5229;41.820;23.490;2022-09-27T00:41:41;89345.75;;;17.22;71.64
10366;BME280;5229;41.820;23.490;2022-09-27T00:47:26;89345.38;;;17.24;71.05
10366;BME280;5229;41.820;23.490;2022-09-27T00:49:57;89330.44;;;17.24;70.94
10366;BME280;5229;41.820;23.490;2022-09-27T00:52:30;89333.78;;;17.21;71.20
10366;BME280;5229;41.820;23.490;2022-09-27T00:55:07;89353.19;;;17.20;71.01
10366;BME280;5229;41.820;23.490;2022-09-27T00:57:34;89345.34;;;17.20;71.09
10366;BME280;5229;41.820;23.490;2022-09-27T01:00:06;89323.22;;;17.14;71.28
10366;BME280;5229;41.820;23.490;2022-09-27T01:02:35;89292.84;;;17.13;71.16
10366;BME280;5229;41.820;23.490;2022-09-27T01:05:05;89273.03;;;17.12;71.15
10366;BME280;5229;41.820;23.490;2022-09-27T01:07:35;89271.13;;;17.09;71.20
10366;BME280;5229;41.820;23.490;2022-09-27T01:10:02;89275.97;;;17.07;71.59
10366;BME280;5229;41.820;23.490;2022-09-27T01:12:34;89278.59;;;17.07;71.39
10366;BME280;5229;41.820;23.490;2022-09-27T01:15:12;89274.44;;;17.06;71.44
10366;BME280;5229;41.820;23.490;2022-09-27T01:17:51;89281.53;;;17.02;71.85
10366;BME280;5229;41.820;23.490;2022-09-27T01:20:41;89300.19;;;16.97;71.44
10366;BME280;5229;41.820;23.490;2022-09-27T01:26:27;89313.28;;;16.97;71.64
10366;BME280;5229;41.820;23.490;2022-09-27T01:29:02;89303.59;;;17.01;72.07
10366;BME280;5229;41.820;23.490;2022-09-27T01:31:35;89284.50;;;17.01;72.04
10366;BME280;5229;41.820;23.490;2022-09-27T01:34:11;89286.38;;;17.00;72.04
10366;BME280;5229;41.820;23.490;2022-09-27T01:36:46;89289.03;;;17.04;72.33
10366;BME280;5229;41.820;23.490;2022-09-27T01:39:27;89292.06;;;17.06;71.98
10366;BME280;5229;41.820;23.490;2022-09-27T01:42:02;89283.88;;;17.11;72.01
10366;BME280;5229;41.820;23.490;2022-09-27T01:44:34;89277.53;;;17.15;72.00
10366;BME280;5229;41.820;23.490;2022-09-27T01:47:11;89276.44;;;17.16;71.81
10366;BME280;5229;41.820;23.490;2022-09-27T01:49:45;89273.44;;;17.18;71.73
10366;BME280;5229;41.820;23.490;2022-09-27T01:52:17;89273.81;;;17.16;71.42
10366;BME280;5229;41.820;23.490;2022-09-27T01:54:49;89276.44;;;17.16;72.20
10366;BME280;5229;41.820;23.490;2022-09-27T01:57:21;89264.81;;;17.14;71.95
10366;BME280;5229;41.820;23.490;2022-09-27T01:59:52;89262.19;;;17.14;72.14
10366;BME280;5229;41.820;23.490;2022-09-27T02:02:25;89260.69;;;17.13;71.98
10366;BME280;5229;41.820;23.490;2022-09-27T02:04:55;89259.84;;;17.05;71.69
10366;BME280;5229;41.820;23.490;2022-09-27T02:07:27;89267.69;;;17.02;72.06
10366;BME280;5229;41.820;23.490;2022-09-27T02:09:58;89269.53;;;17.01;72.30
10366;BME280;5229;41.820;23.490;2022-09-27T02:12:30;89255.72;;;17.04;72.42
10366;BME280;5229;41.820;23.490;2022-09-27T02:15:02;89251.25;;;17.05;72.57
10366;BME280;5229;41.820;23.490;2022-09-27T02:17:40;89254.94;;;17.00;72.44
10366;BME280;5229;41.820;23.490;2022-09-27T02:20:14;89248.94;;;16.96;72.19
10366;BME280;5229;41.820;23.490;2022-09-27T02:22:47;89231.31;;;16.97;72.67
10366;BME280;5229;41.820;23.490;2022-09-27T02:25:20;89234.38;;;17.02;72.85
10366;BME280;5229;41.820;23.490;2022-09-27T02:27:56;89232.91;;;17.05;72.31
10366;BME280;5229;41.820;23.490;2022-09-27T02:30:25;89251.63;;;17.07;72.88
10366;BME280;5229;41.820;23.490;2022-09-27T02:32:53;89251.25;;;17.05;72.19
10366;BME280;5229;41.820;23.490;2022-09-27T02:35:25;89242.63;;;17.04;72.13
10366;BME280;5229;41.820;23.490;2022-09-27T02:37:54;89228.78;;;17.04;72.53
10366;BME280;5229;41.820;23.490;2022-09-27T02:40:21;89238.53;;;17.03;72.32
10366;BME280;5229;41.820;23.490;2022-09-27T02:42:49;89233.66;;;17.05;72.41
10366;BME280;5229;41.820;23.490;2022-09-27T02:45:17;89225.50;;;17.10;72.20
10366;BME280;5229;41.820;23.490;2022-09-27T02:47:59;89240.09;;;17.11;71.96
10366;BME280;5229;41.820;23.490;2022-09-27T02:50:52;89246.44;;;17.10;72.25
10366;BME280;5229;41.820;23.490;2022-09-27T02:53:33;89240.47;;;17.13;72.27
10366;BME280;5229;41.820;23.490;2022-09-27T02:56:11;89253.19;;;17.15;72.05
10366;BME280;5229;41.820;23.490;2022-09-27T02:58:48;89246.41;;;17.07;72.20
10366;BME280;5229;41.820;23.490;2022-09-27T03:01:24;89233.28;;;17.03;72.23
10366;BME280;5229;41.820;23.490;2022-09-27T03:03:59;89217.91;;;17.02;72.23
10366;BME280;5229;41.820;23.490;2022-09-27T03:06:31;89217.16;;;17.01;72.50
10366;BME280;5229;41.820;23.490;2022-09-27T03:09:00;89213.41;;;16.99;72.44
10366;BME280;5229;41.820;23.490;2022-09-27T03:11:27;89213.41;;;16.99;72.68
10366;BME280;5229;41.820;23.490;2022-09-27T03:13:53;89203.66;;;16.99;72.85
10366;BME280;5229;41.820;23.490;2022-09-27T03:16:20;89199.22;;;17.03;72.35
10366;BME280;5229;41.820;23.490;2022-09-27T03:18:47;89194.38;;;17.05;72.33
10366;BME280;5229;41.820;23.490;2022-09-27T03:21:15;89207.50;;;17.09;72.72
10366;BME280;5229;41.820;23.490;2022-09-27T03:23:42;89211.56;;;17.06;72.39
10366;BME280;5229;41.820;23.490;2022-09-27T03:26:09;89210.13;;;17.09;72.60
10366;BME280;5229;41.820;23.490;2022-09-27T03:28:36;89218.72;;;17.09;72.44
10366;BME280;5229;41.820;23.490;2022-09-27T03:31:03;89224.31;;;17.08;72.19
10366;BME280;5229;41.820;23.490;2022-09-27T03:33:30;89220.56;;;17.05;72.67
10366;BME280;5229;41.820;23.490;2022-09-27T03:35:57;89222.47;;;17.08;72.48
10366;BME280;5229;41.820;23.490;2022-09-27T03:38:26;89193.28;;;17.10;72.27
10366;BME280;5229;41.820;23.490;2022-09-27T03:40:53;89169.72;;;17.10;72.32
10366;BME280;5229;41.820;23.490;2022-09-27T03:43:20;89187.28;;;17.09;72.64
10366;BME280;5229;41.820;23.490;2022-09-27T03:45:46;89192.94;;;17.11;72.95
10366;BME280;5229;41.820;23.490;2022-09-27T03:48:13;89191.09;;;17.15;72.67
10366;BME280;5229;41.820;23.490;2022-09-27T03:50:40;89191.09;;;17.15;72.80
10366;BME280;5229;41.820;23.490;2022-09-27T03:53:07;89175.38;;;17.15;72.25
10366;BME280;5229;41.820;23.490;2022-09-27T03:55:35;89180.59;;;17.15;72.82
10366;BME280;5229;41.820;23.490;2022-09-27T03:58:02;89190.72;;;17.17;72.78
10366;BME280;5229;41.820;23.490;2022-09-27T04:00:29;89192.59;;;17.16;72.72
10366;BME280;5229;41.820;23.490;2022-09-27T04:02:57;89206.03;;;17.15;72.60
10366;BME280;5229;41.820;23.490;2022-09-27T04:05:24;89211.28;;;17.15;72.39
10366;BME280;5229;41.820;23.490;2022-09-27T04:07:52;89206.03;;;17.11;72.19
10366;BME280;5229;41.820;23.490;2022-09-27T04:10:19;89209.00;;;17.10;72.57
10366;BME280;5229;41.820;23.490;2022-09-27T04:12:47;89207.50;;;17.09;72.50
10366;BME280;5229;41.820;23.490;2022-09-27T04:15:14;89198.53;;;17.10;72.62
10366;BME280;5229;41.820;23.490;2022-09-27T04:17:41;89194.78;;;17.11;72.81
10366;BME280;5229;41.820;23.490;2022-09-27T04:20:08;89193.28;;;17.10;72.75
10366;BME280;5229;41.820;23.490;2022-09-27T04:22:38;89186.19;;;17.10;72.63
10366;BME280;5229;41.820;23.490;2022-09-27T04:25:06;89187.69;;;17.11;72.23
10366;BME280;5229;41.820;23.490;2022-09-27T04:27:33;89188.06;;;17.13;72.30
10366;BME280;5229;41.820;23.490;2022-09-27T04:30:02;89194.06;;;17.10;72.51
10366;BME280;5229;41.820;23.490;2022-09-27T04:32:29;89188.75;;;17.07;72.39
10366;BME280;5229;41.820;23.490;2022-09-27T04:34:56;89192.88;;;17.08;72.47
10366;BME280;5229;41.820;23.490;2022-09-27T04:37:40;89196.63;;;17.07;72.84
10366;BME280;5229;41.820;23.490;2022-09-27T04:40:08;89197.75;;;17.09;72.23
10366;BME280;5229;41.820;23.490;2022-09-27T04:42:35;89208.66;;;17.11;72.65
10366;BME280;5229;41.820;23.490;2022-09-27T04:45:04;89203.06;;;17.16;72.37
10366;BME280;5229;41.820;23.490;2022-09-27T04:47:31;89184.72;;;17.16;72.55
10366;BME280;5229;41.820;23.490;2022-09-27T04:49:58;89176.88;;;17.16;72.34
10366;BME280;5229;41.820;23.490;2022-09-27T04:52:25;89177.59;;;17.13;72.11
10366;BME280;5229;41.820;23.490;2022-09-27T04:54:52;89177.59;;;17.13;72.50
10366;BME280;5229;41.820;23.490;2022-09-27T04:57:19;89182.88;;;17.17;72.34
10366;BME280;5229;41.820;23.490;2022-09-27T04:59:46;89185.88;;;17.19;72.25
10366;BME280;5229;41.820;23.490;2022-09-27T05:02:15;89180.66;;;17.22;72.10
10366;BME280;5229;41.820;23.490;2022-09-27T05:04:42;89177.28;;;17.22;72.17
10366;BME280;5229;41.820;23.490;2022-09-27T05:07:09;89162.28;;;17.19;72.14
10366;BME280;5229;41.820;23.490;2022-09-27T05:09:36;89156.66;;;17.17;72.28
10366;BME280;5229;41.820;23.490;2022-09-27T05:12:04;89169.41;;;17.18;72.43
10366;BME280;5229;41.820;23.490;2022-09-27T05:14:32;89169.00;;;17.16;72.44
10366;BME280;5229;41.820;23.490;2022-09-27T05:16:59;89163.41;;;17.18;72.23
10366;BME280;5229;41.820;23.490;2022-09-27T05:19:27;89157.44;;;17.21;72.20
10366;BME280;5229;41.820;23.490;2022-09-27T05:21:54;89164.53;;;17.20;72.16
10366;BME280;5229;41.820;23.490;2022-09-27T05:24:21;89172.75;;;17.19;71.90
10366;BME280;5229;41.820;23.490;2022-09-27T05:26:48;89185.13;;;17.18;72.54
10366;BME280;5229;41.820;23.490;2022-09-27T05:29:15;89161.91;;;17.20;72.52
10366;BME280;5229;41.820;23.490;2022-09-27T05:31:42;89161.97;;;17.24;72.09
10366;BME280;5229;41.820;23.490;2022-09-27T05:34:09;89170.59;;;17.24;72.13
10366;BME280;5229;41.820;23.490;2022-09-27T05:36:37;89177.34;;;17.29;72.23
10366;BME280;5229;41.820;23.490;2022-09-27T05:39:05;89174.72;;;17.29;71.99
10366;BME280;5229;41.820;23.490;2022-09-27T05:41:32;89162.72;;;17.28;72.47
10366;BME280;5229;41.820;23.490;2022-09-27T05:43:59;89158.97;;;17.25;72.45
10366;BME280;5229;41.820;23.490;2022-09-27T05:46:26;89167.97;;;17.24;72.26
10366;BME280;5229;41.820;23.490;2022-09-27T05:48:53;89159.34;;;17.24;71.99
10366;BME280;5229;41.820;23.490;2022-09-27T05:51:19;89165.66;;;17.19;72.33
10366;BME280;5229;41.820;23.490;2022-09-27T05:53:48;89179.53;;;17.20;72.34
10366;BME280;5229;41.820;23.490;2022-09-27T05:56:15;89171.31;;;17.21;72.33
10366;BME280;5229;41.820;23.490;2022-09-27T05:58:42;89166.06;;;17.25;72.34
10366;BME280;5229;41.820;23.490;2022-09-27T06:01:09;89176.19;;;17.23;72.31
10366;BME280;5229;41.820;23.490;2022-09-27T06:03:36;89191.91;;;17.26;72.38
10366;BME280;5229;41.820;23.490;2022-09-27T06:06:05;89193.03;;;17.25;72.19
10366;BME280;5229;41.820;23.490;2022-09-27T06:08:33;89183.69;;;17.28;72.22
10366;BME280;5229;41.820;23.490;2022-09-27T06:11:04;89170.25;;;17.29;71.80
10366;BME280;5229;41.820;23.490;2022-09-27T06:13:32;89173.56;;;17.26;71.75
10366;BME280;5229;41.820;23.490;2022-09-27T06:16:01;89173.97;;;17.28;72.39
10366;BME280;5229;41.820;23.490;2022-09-27T06:18:28;89175.47;;;17.29;72.02
10366;BME280;5229;41.820;23.490;2022-09-27T06:20:58;89181.13;;;17.31;72.17
10366;BME280;5229;41.820;23.490;2022-09-27T06:23:25;89181.50;;;17.33;72.36
10366;BME280;5229;41.820;23.490;2022-09-27T06:25:53;89184.88;;;17.37;71.92
10366;BME280;5229;41.820;23.490;2022-09-27T06:28:22;89184.59;;;17.42;72.01
10366;BME280;5229;41.820;23.490;2022-09-27T06:30:49;89184.63;;;17.46;71.57
10366;BME280;5229;41.820;23.490;2022-09-27T06:33:18;89192.84;;;17.44;71.74
10366;BME280;5229;41.820;23.490;2022-09-27T06:35:46;89188.72;;;17.43;71.42
10366;BME280;5229;41.820;23.490;2022-09-27T06:38:15;89180.84;;;17.43;71.60
10366;BME280;5229;41.820;23.490;2022-09-27T06:40:43;89193.19;;;17.43;71.74
10366;BME280;5229;41.820;23.490;2022-09-27T06:43:12;89191.34;;;17.43;71.54
10366;BME280;5229;41.820;23.490;2022-09-27T06:45:41;89197.34;;;17.48;71.54
10366;BME280;5229;41.820;23.490;2022-09-27T06:48:10;89195.13;;;17.50;71.39
10366;BME280;5229;41.820;23.490;2022-09-27T06:50:38;89192.88;;;17.52;71.51
10366;BME280;5229;41.820;23.490;2022-09-27T06:53:06;89191.03;;;17.56;71.26
10366;BME280;5229;41.820;23.490;2022-09-27T06:55:35;89199.66;;;17.56;71.25
10366;BME280;5229;41.820;23.490;2022-09-27T06:58:02;89210.91;;;17.57;71.23
10366;BME280;5229;41.820;23.490;2022-09-27T07:00:49;89206.00;;;17.52;71.28
10366;BME280;5229;41.820;23.490;2022-09-27T07:03:18;89210.06;;;17.45;71.52
10366;BME280;5229;41.820;23.490;2022-09-27T07:05:54;89202.94;;;17.42;71.75
10366;BME280;5229;41.820;23.490;2022-09-27T07:08:23;89209.69;;;17.43;71.72
10366;BME280;5229;41.820;23.490;2022-09-27T07:10:51;89224.34;;;17.48;71.21
10366;BME280;5229;41.820;23.490;2022-09-27T07:13:20;89214.97;;;17.51;71.62
10366;BME280;5229;41.820;23.490;2022-09-27T07:15:48;89204.50;;;17.54;71.14
10366;BME280;5229;41.820;23.490;2022-09-27T07:18:15;89219.88;;;17.56;71.15
10366;BME280;5229;41.820;23.490;2022-09-27T07:20:42;89219.16;;;17.59;71.65
10366;BME280;5229;41.820;23.490;2022-09-27T07:23:09;89215.81;;;17.62;71.25
10366;BME280;5229;41.820;23.490;2022-09-27T07:25:37;89210.97;;;17.67;71.33
10366;BME280;5229;41.820;23.490;2022-09-27T07:28:05;89210.63;;;17.72;71.22
10366;BME280;5229;41.820;23.490;2022-09-27T07:30:34;89211.81;;;17.78;71.28
10366;BME280;5229;41.820;23.490;2022-09-27T07:33:04;89214.84;;;17.84;70.86
10366;BME280;5229;41.820;23.490;2022-09-27T07:35:32;89207.72;;;17.84;71.24
10366;BME280;5229;41.820;23.490;2022-09-27T07:37:59;89212.59;;;17.86;71.16
10366;BME280;5229;41.820;23.490;2022-09-27T07:40:26;89208.09;;;17.86;70.89
10366;BME280;5229;41.820;23.490;2022-09-27T07:42:54;89208.13;;;17.90;70.75
10366;BME280;5229;41.820;23.490;2022-09-27T07:45:21;89207.41;;;17.93;70.78
10366;BME280;5229;41.820;23.490;2022-09-27T07:47:49;89215.66;;;17.95;70.99
10366;BME280;5229;41.820;23.490;2022-09-27T07:50:17;89208.53;;;17.99;71.02
10366;BME280;5229;41.820;23.490;2022-09-27T07:52:45;89205.91;;;17.99;71.07
10366;BME280;5229;41.820;23.490;2022-09-27T07:55:13;89225.03;;;17.99;70.74
10366;BME280;5229;41.820;23.490;2022-09-27T07:57:41;89231.38;;;17.95;71.06
10366;BME280;5229;41.820;23.490;2022-09-27T08:00:12;89216.75;;;17.90;70.91
10366;BME280;5229;41.820;23.490;2022-09-27T08:02:40;89218.63;;;17.90;70.96
10366;BME280;5229;41.820;23.490;2022-09-27T08:05:08;89216.75;;;17.90;70.84
10366;BME280;5229;41.820;23.490;2022-09-27T08:07:36;89216.72;;;17.87;70.90
10366;BME280;5229;41.820;23.490;2022-09-27T08:10:05;89212.59;;;17.86;71.05
10366;BME280;5229;41.820;23.490;2022-09-27T08:12:32;89218.63;;;17.90;70.75
10366;BME280;5229;41.820;23.490;2022-09-27T08:14:59;89208.91;;;17.94;70.83
10366;BME280;5229;41.820;23.490;2022-09-27T08:17:27;89205.56;;;17.97;70.80
10366;BME280;5229;41.820;23.490;2022-09-27T08:20:04;89208.19;;;18.00;70.58
10366;BME280;5229;41.820;23.490;2022-09-27T08:22:31;89194.00;;;18.12;70.21
10366;BME280;5229;41.820;23.490;2022-09-27T08:24:59;89186.16;;;18.19;69.95
10366;BME280;5229;41.820;23.490;2022-09-27T08:27:26;89194.81;;;18.23;69.74
10366;BME280;5229;41.820;23.490;2022-09-27T08:29:53;89206.06;;;18.27;69.93
10366;BME280;5229;41.820;23.490;2022-09-27T08:32:20;89206.84;;;18.27;69.65
10366;BME280;5229;41.820;23.490;2022-09-27T08:34:47;89195.97;;;18.29;69.72
10366;BME280;5229;41.820;23.490;2022-09-27T08:37:14;89206.09;;;18.34;70.06
10366;BME280;5229;41.820;23.490;2022-09-27T08:39:41;89213.66;;;18.39;69.61
10366;BME280;5229;41.820;23.490;2022-09-27T08:42:17;89208.44;;;18.46;69.54
10366;BME280;5229;41.820;23.490;2022-09-27T08:44:53;89211.09;;;18.53;69.45
10366;BME280;5229;41.820;23.490;2022-09-27T08:47:26;89202.09;;;18.54;69.10
10366;BME280;5229;41.820;23.490;2022-09-27T08:49:59;89194.97;;;18.54;69.02
10366;BME280;5229;41.820;23.490;2022-09-27T08:52:29;89197.25;;;18.56;68.79
10366;BME280;5229;41.820;23.490;2022-09-27T08:55:02;89200.22;;;18.58;68.90
10366;BME280;5229;41.820;23.490;2022-09-27T08:57:31;89210.75;;;18.61;68.92
10366;BME280;5229;41.820;23.490;2022-09-27T09:00:05;89221.25;;;18.65;68.56
10366;BME280;5229;41.820;23.490;2022-09-27T09:02:34;89206.25;;;18.69;68.59
10366;BME280;5229;41.820;23.490;2022-09-27T09:05:05;89211.16;;;18.67;68.30
10366;BME280;5229;41.820;23.490;2022-09-27T09:07:46;89201.75;;;18.66;68.19
10366;BME280;5229;41.820;23.490;2022-09-27T09:10:29;89201.38;;;18.64;68.08
10366;BME280;5229;41.820;23.490;2022-09-27T09:13:28;89198.75;;;18.64;67.99
10366;BME280;5229;41.820;23.490;2022-09-27T09:16:06;89186.00;;;18.66;67.94
10366;BME280;5229;41.820;23.490;2022-09-27T09:18:47;89181.91;;;18.68;67.98
10366;BME280;5229;41.820;23.490;2022-09-27T09:21:26;89184.53;;;18.68;67.74
10366;BME280;5229;41.820;23.490;2022-09-27T09:24:09;89181.13;;;18.68;67.89
10366;BME280;5229;41.820;23.490;2022-09-27T09:26:48;89173.66;;;18.80;67.86
10366;BME280;5229;41.820;23.490;2022-09-27T09:29:33;89177.78;;;18.88;67.93
10366;BME280;5229;41.820;23.490;2022-09-27T09:32:13;89173.72;;;18.98;67.47
10366;BME280;5229;41.820;23.490;2022-09-27T09:34:50;89172.94;;;19.15;67.52
10366;BME280;5229;41.820;23.490;2022-09-27T09:37:20;89174.09;;;19.24;67.22
10366;BME280;5229;41.820;23.490;2022-09-27T09:39:51;89174.88;;;19.32;67.06
10366;BME280;5229;41.820;23.490;2022-09-27T09:42:25;89167.38;;;19.41;66.54
10366;BME280;5229;41.820;23.490;2022-09-27T09:45:00;89154.59;;;19.50;66.45
10366;BME280;5229;41.820;23.490;2022-09-27T09:47:32;89165.09;;;19.64;66.21
10366;BME280;5229;41.820;23.490;2022-09-27T09:50:05;89176.38;;;19.78;65.72
10366;BME280;5229;41.820;23.490;2022-09-27T09:52:42;89170.72;;;19.83;65.56
10366;BME280;5229;41.820;23.490;2022-09-27T09:55:16;89169.22;;;19.79;65.44
10366;BME280;5229;41.820;23.490;2022-09-27T09:57:53;89160.56;;;19.75;65.20
10366;BME280;5229;41.820;23.490;2022-09-27T10:00:24;89138.78;;;19.81;65.33
10366;BME280;5229;41.820;23.490;2022-09-27T10:02:53;89142.50;;;19.87;65.28
10366;BME280;5229;41.820;23.490;2022-09-27T10:05:22;89143.22;;;20.02;65.51
10366;BME280;5229;41.820;23.490;2022-09-27T10:07:52;89135.72;;;20.11;64.98
10366;BME280;5229;41.820;23.490;2022-09-27T10:10:20;89136.06;;;20.20;65.09
10366;BME280;5229;41.820;23.490;2022-09-27T10:12:48;89123.59;;;20.31;64.83
10366;BME280;5229;41.820;23.490;2022-09-27T10:15:17;89120.56;;;20.43;64.34
10366;BME280;5229;41.820;23.490;2022-09-27T10:17:48;89123.31;;;20.87;64.06
10366;BME280;5229;41.820;23.490;2022-09-27T10:20:27;89136.81;;;21.54;61.87
10366;BME280;5229;41.820;23.490;2022-09-27T10:22:59;89135.44;;;21.83;61.11
10366;BME280;5229;41.820;23.490;2022-09-27T10:25:44;89140.31;;;21.85;61.43
10366;BME280;5229;41.820;23.490;2022-09-27T10:28:29;89139.97;;;21.83;61.29
10366;BME280;5229;41.820;23.490;2022-09-27T10:30:59;89137.38;;;21.79;61.17
10366;BME280;5229;41.820;23.490;2022-09-27T10:33:29;89142.34;;;21.67;61.20
10366;BME280;5229;41.820;23.490;2022-09-27T10:35:58;89139.44;;;21.54;60.89
10366;BME280;5229;41.820;23.490;2022-09-27T10:38:28;89130.44;;;21.48;61.25
10366;BME280;5229;41.820;23.490;2022-09-27T10:40:57;89132.00;;;21.42;60.89
10366;BME280;5229;41.820;23.490;2022-09-27T10:43:30;89127.47;;;21.43;60.76
10366;BME280;5229;41.820;23.490;2022-09-27T10:46:11;89110.16;;;21.38;60.81
10366;BME280;5229;41.820;23.490;2022-09-27T10:48:40;89111.63;;;21.46;60.61
10366;BME280;5229;41.820;23.490;2022-09-27T10:51:21;89121.34;;;21.56;60.65
10366;BME280;5229;41.820;23.490;2022-09-27T10:53:49;89122.00;;;21.67;60.44
10366;BME280;5229;41.820;23.490;2022-09-27T10:56:22;89109.09;;;21.80;60.76
10366;BME280;5229;41.820;23.490;2022-09-27T10:58:49;89101.41;;;21.92;60.00
10366;BME280;5229;41.820;23.490;2022-09-27T11:01:17;89112.63;;;22.00;59.37
10366;BME280;5229;41.820;23.490;2022-09-27T11:03:48;89106.50;;;22.10;59.56
10366;BME280;5229;41.820;23.490;2022-09-27T11:06:28;89098.97;;;22.08;59.45
10366;BME280;5229;41.820;23.490;2022-09-27T11:09:09;89097.91;;;22.02;59.17
10366;BME280;5229;41.820;23.490;2022-09-27T11:11:38;89098.25;;;22.04;58.94
10366;BME280;5229;41.820;23.490;2022-09-27T11:14:16;89090.31;;;22.08;59.04
10366;BME280;5229;41.820;23.490;2022-09-27T11:16:53;89094.06;;;22.10;58.85
10366;BME280;5229;41.820;23.490;2022-09-27T11:19:35;89093.28;;;22.10;58.73
10366;BME280;5229;41.820;23.490;2022-09-27T11:22:13;89099.72;;;22.09;59.09
10366;BME280;5229;41.820;23.490;2022-09-27T11:24:55;89091.44;;;22.07;59.29
10366;BME280;5229;41.820;23.490;2022-09-27T11:27:37;89101.66;;;22.05;59.24
10366;BME280;5229;41.820;23.490;2022-09-27T11:30:11;89091.44;;;22.07;58.68
10366;BME280;5229;41.820;23.490;2022-09-27T11:32:49;89085.81;;;22.05;58.77
10366;BME280;5229;41.820;23.490;2022-09-27T11:35:29;89094.53;;;22.02;58.81
10366;BME280;5229;41.820;23.490;2022-09-27T11:38:08;89093.75;;;22.01;58.15
10366;BME280;5229;41.820;23.490;2022-09-27T11:40:51;89091.50;;;22.03;59.12
10366;BME280;5229;41.820;23.490;2022-09-27T11:43:46;89078.38;;;21.93;59.27
10366;BME280;5229;41.820;23.490;2022-09-27T11:46:22;89067.81;;;21.93;59.44
10366;BME280;5229;41.820;23.490;2022-09-27T11:49:08;89068.94;;;21.95;59.67
10366;BME280;5229;41.820;23.490;2022-09-27T11:51:56;89077.91;;;22.01;58.95
10366;BME280;5229;41.820;23.490;2022-09-27T11:54:40;89079.38;;;22.06;59.49
10366;BME280;5229;41.820;23.490;2022-09-27T11:57:17;89078.91;;;22.14;59.21
10366;BME280;5229;41.820;23.490;2022-09-27T12:00:02;89075.47;;;22.17;58.77
10366;BME280;5229;41.820;23.490;2022-09-27T12:05:42;89071.56;;;22.29;58.48
10366;BME280;5229;41.820;23.490;2022-09-27T12:08:25;89071.19;;;22.30;58.67
10366;BME280;5229;41.820;23.490;2022-09-27T12:10:58;89064.66;;;22.38;58.72
10366;BME280;5229;41.820;23.490;2022-09-27T12:13:32;89076.81;;;22.32;58.69
10366;BME280;5229;41.820;23.490;2022-09-27T12:16:00;89082.25;;;22.18;58.71
10366;BME280;5229;41.820;23.490;2022-09-27T12:18:30;89083.72;;;22.23;59.23
10366;BME280;5229;41.820;23.490;2022-09-27T12:21:00;89085.88;;;22.31;59.08
10366;BME280;5229;41.820;23.490;2022-09-27T12:23:35;89079.94;;;22.24;59.45
10366;BME280;5229;41.820;23.490;2022-09-27T12:26:07;89064.84;;;22.24;59.01
10366;BME280;5229;41.820;23.490;2022-09-27T12:28:40;89079.53;;;22.25;59.20
10366;BME280;5229;41.820;23.490;2022-09-27T12:31:15;89091.25;;;22.24;58.98
10366;BME280;5229;41.820;23.490;2022-09-27T12:33:50;89089.47;;;22.14;59.63
10366;BME280;5229;41.820;23.490;2022-09-27T12:36:23;89076.34;;;22.07;59.79
10366;BME280;5229;41.820;23.490;2022-09-27T12:38:57;89062.06;;;22.01;60.58
10366;BME280;5229;41.820;23.490;2022-09-27T12:41:31;89048.84;;;22.05;60.66
10366;BME280;5229;41.820;23.490;2022-09-27T12:44:01;89056.28;;;22.13;60.31
10366;BME280;5229;41.820;23.490;2022-09-27T12:46:34;89065.97;;;22.23;60.08
10366;BME280;5229;41.820;23.490;2022-09-27T12:49:08;89061.00;;;22.29;59.75
10366;BME280;5229;41.820;23.490;2022-09-27T12:51:41;89060.16;;;22.35;59.47
10366;BME280;5229;41.820;23.490;2022-09-27T12:54:32;89062.03;;;22.38;59.57
10366;BME280;5229;41.820;23.490;2022-09-27T12:57:13;89062.66;;;22.49;59.21
10366;BME280;5229;41.820;23.490;2022-09-27T12:59:59;89054.28;;;22.54;58.97
10366;BME280;5229;41.820;23.490;2022-09-27T13:02:51;89059.56;;;22.54;58.95
10366;BME280;5229;41.820;23.490;2022-09-27T13:08:30;89059.25;;;22.49;58.94
10366;BME280;5229;41.820;23.490;2022-09-27T13:11:10;89047.97;;;22.48;58.85
10366;BME280;5229;41.820;23.490;2022-09-27T13:13:39;89049.78;;;22.51;59.33
10366;BME280;5229;41.820;23.490;2022-09-27T13:16:07;89052.09;;;22.49;59.34
10366;BME280;5229;41.820;23.490;2022-09-27T13:18:52;89041.59;;;22.42;59.65
10366;BME280;5229;41.820;23.490;2022-09-27T13:21:55;89038.63;;;22.37;60.20
10366;BME280;5229;41.820;23.490;2022-09-27T13:24:46;89058.00;;;22.27;60.40
10366;BME280;5229;41.820;23.490;2022-09-27T13:27:39;89064.22;;;22.13;61.15
10366;BME280;5229;41.820;23.490;2022-09-27T13:33:33;89093.59;;;21.82;62.06
10366;BME280;5229;41.820;23.490;2022-09-27T13:36:27;89085.09;;;21.60;62.52
10366;BME280;5229;41.820;23.490;2022-09-27T13:39:15;89046.06;;;21.41;63.48
10366;BME280;5229;41.820;23.490;2022-09-27T13:42:00;89062.06;;;21.20;64.05